Portada
METAR-TAF:

METAR-TAF

Aeroports :

Briansk, Rússia

latitud: 53-15N, longitud: 034-19E, altitud: 217 m

Observació

L'informe es va fer fa 10 hores i 51 minuts, a les 15:00 UTC
Vent 6 kt del Sud/Sud-Est
Temperatura 15°C
Humitat 21%
Pressió 1005 hPa
Visibilitat 10 km o més
sense núvols per sota de 1500 mi sense presència de cumulonimbus.

METAR: UUBP 291500Z 16003MPS CAVOK 15/M07 Q1005 R16/CLRD70 NOSIG RMK QFE735/0981

Hora: 04:51 (01:51 UTC)

Pronòstic

L'informe es va fer fa 11 hores i 51 minuts, a les 14:00 UTC
Pronòstic vàlid del 29 a les 15 UTC al 29 a les 24 UTC
Vent 8 kt del Sud-Est
Visibilitat 10 km o més
Cel ennuvolat a una alçada de 3000 ft

TAF: UUBP 291400Z 2915/2924 13004MPS 9999 BKN030

Observacions i pronòstics meteorològics de més de 4000 aeroports (METAR i TAF).

Les estacions disponibles són els punts grocs i vermells al mapa.

Posi el ratolí al punt desitjat per veure el nom de l'estació.

Feu clic per veure les observacions i els pronòstics meteorològics.

Per canviar el mapa: feu clic els botons verds amb una creu de color negre per apropar; al botó verd amb un guió per allunyar la imatge; o en les fletxes verdes per a mapes adjacents.


METAR-TAF: